South Arlington, Ohio
Current Conditions -  °F | °C
As of 4:54 AM on Friday 31 Oct 2014 (Local Time) from KAKR Reporting Station
Overcast Overcast  
Wind Chill: 45°   Ceiling: 4700
Heat Index: 45°   Visibility: 10mi
Dew Point: 38°   Wind: 0mph
Humidity: 76%   Direction: NA
Pressure: 29.97"   Gusts: NA
Location:  41.0384°N, 81.4827°W
Report Text: KAKR 310854Z AUTO 00000KT 10SM OVC047 07/03 A2997 RMK AO2 SLP150 T00720033 58014
Loading
Personal Weather Stations






























Interactive Weather Map
Tropical Storm Tracking
New forecast layout! Learn more

10-Day Weather Forecast

Advertisements
Track Severe Weather on mobile